Overview Statistics Trail Chart Weather Telemetry Raw packets
 

This is the latest recevied weather packets stored in our database for station/object KJ6HT. If no packets are shown the sender has not sent any weather packets the latest 10 day(s).

<< 23 24 25 26 27 28 29 >>
Time Temp. Humidity Pressure Rain* Wind** Luminosity Snow
1788084953 23.33° C 76% 1009 hPa 0 mm - - -
1788084017 24.44° C 72% 1008.9 hPa 0 mm - - -
1788083164 23.89° C 73% 1009 hPa 0 mm - - -
1788082216 24.44° C 72% 1008.8 hPa 0 mm - - -
1788081374 25° C 70% 1008.7 hPa 0 mm - - -
1788080464 24.44° C 73% 1008.7 hPa 0 mm - - -
1788079531 25° C 74% 1008.8 hPa 0 mm - - -
1788078688 25.56° C 70% 1008.9 hPa 0 mm - - -
1788077764 25° C 71% 1008.8 hPa 0 mm - - -
1788076833 25.56° C 69% 1008.9 hPa 0 mm - - -
1788075985 25° C 69% 1008.9 hPa 0 mm - - -
1788075027 25° C 69% 1009 hPa 0 mm - - -
1788074178 25.56° C 68% 1008.9 hPa 0 mm - - -
1788073254 25.56° C 68% 1008.9 hPa 0 mm - - -
1788072312 25.56° C 67% 1008.8 hPa 0 mm - - -
1788071470 26.11° C 66% 1008.7 hPa 0 mm - - -
1788070521 27.22° C 63% 1008.7 hPa 0 mm - - -
1788069668 27.78° C 63% 1008.7 hPa 0 mm - - -
1788068724 27.22° C 63% 1008.7 hPa 0 mm - - -
1788067861 28.33° C 60% 1008.7 hPa 0 mm - - -
1788066929 28.33° C 59% 1008.7 hPa 0 mm - - -
1788066060 28.33° C 59% 1008.8 hPa 0 mm - - -
1788065115 27.78° C 59% 1008.8 hPa 0 mm - - -
1788064269 28.33° C 56% 1008.7 hPa 0 mm - - -
1788063325 27.78° C 57% 1008.4 hPa 0 mm - - -

* Rain latest hour (hover to see other rain measurements)
** Current wind speed in m/s (hover to see current wind gust speed)